sensor_id;sensor_type;location;lat;lon;timestamp;P1;durP1;ratioP1;P2;durP2;ratioP2
26656;SDS011;14279;50.010;8.260;2024-03-23T00:53:37;35.63;;;21.40;;
26656;SDS011;14279;50.010;8.260;2024-03-23T00:56:02;33.50;;;20.63;;
26656;SDS011;14279;50.010;8.260;2024-03-23T00:58:28;32.60;;;18.90;;
26656;SDS011;14279;50.010;8.260;2024-03-23T01:00:53;28.00;;;16.20;;
26656;SDS011;14279;50.010;8.260;2024-03-23T01:03:18;26.07;;;16.93;;
26656;SDS011;14279;50.010;8.260;2024-03-23T01:05:44;31.20;;;17.30;;
26656;SDS011;14279;50.010;8.260;2024-03-23T01:08:09;25.90;;;15.77;;
26656;SDS011;14279;50.010;8.260;2024-03-23T01:10:34;27.60;;;16.20;;
26656;SDS011;14279;50.010;8.260;2024-03-23T01:12:59;25.03;;;16.40;;
26656;SDS011;14279;50.010;8.260;2024-03-23T01:15:24;25.87;;;14.80;;
26656;SDS011;14279;50.010;8.260;2024-03-23T01:17:50;25.20;;;15.00;;
26656;SDS011;14279;50.010;8.260;2024-03-23T01:20:15;27.07;;;15.70;;
26656;SDS011;14279;50.010;8.260;2024-03-23T01:22:41;23.43;;;16.40;;
26656;SDS011;14279;50.010;8.260;2024-03-23T01:25:07;28.73;;;16.40;;
26656;SDS011;14279;50.010;8.260;2024-03-23T01:27:32;26.53;;;16.67;;
26656;SDS011;14279;50.010;8.260;2024-03-23T01:29:57;31.17;;;15.90;;
26656;SDS011;14279;50.010;8.260;2024-03-23T01:32:23;32.53;;;15.80;;
26656;SDS011;14279;50.010;8.260;2024-03-23T01:34:48;25.10;;;15.40;;
26656;SDS011;14279;50.010;8.260;2024-03-23T01:37:13;26.97;;;15.40;;
26656;SDS011;14279;50.010;8.260;2024-03-23T01:39:38;28.23;;;17.17;;
26656;SDS011;14279;50.010;8.260;2024-03-23T01:42:04;23.50;;;16.33;;
26656;SDS011;14279;50.010;8.260;2024-03-23T01:44:29;24.73;;;16.00;;
26656;SDS011;14279;50.010;8.260;2024-03-23T01:46:54;53.10;;;16.40;;
26656;SDS011;14279;50.010;8.260;2024-03-23T01:49:20;23.07;;;13.90;;
26656;SDS011;14279;50.010;8.260;2024-03-23T01:51:45;22.77;;;14.77;;
26656;SDS011;14279;50.010;8.260;2024-03-23T01:54:10;26.63;;;12.83;;
26656;SDS011;14279;50.010;8.260;2024-03-23T01:56:36;21.37;;;12.90;;
26656;SDS011;14279;50.010;8.260;2024-03-23T01:59:02;20.67;;;13.97;;
26656;SDS011;14279;50.010;8.260;2024-03-23T02:01:30;21.30;;;13.70;;
26656;SDS011;14279;50.010;8.260;2024-03-23T02:03:56;20.20;;;14.10;;
26656;SDS011;14279;50.010;8.260;2024-03-23T02:06:22;20.87;;;12.93;;
26656;SDS011;14279;50.010;8.260;2024-03-23T02:08:48;20.37;;;14.13;;
26656;SDS011;14279;50.010;8.260;2024-03-23T02:11:14;19.37;;;12.63;;
26656;SDS011;14279;50.010;8.260;2024-03-23T02:13:39;24.03;;;13.17;;
26656;SDS011;14279;50.010;8.260;2024-03-23T02:16:05;21.40;;;13.63;;
26656;SDS011;14279;50.010;8.260;2024-03-23T02:18:30;22.50;;;14.87;;
26656;SDS011;14279;50.010;8.260;2024-03-23T02:20:56;22.03;;;15.10;;
26656;SDS011;14279;50.010;8.260;2024-03-23T02:23:21;19.93;;;12.63;;
26656;SDS011;14279;50.010;8.260;2024-03-23T02:25:46;21.23;;;13.57;;
26656;SDS011;14279;50.010;8.260;2024-03-23T02:28:12;26.57;;;12.37;;
26656;SDS011;14279;50.010;8.260;2024-03-23T02:30:37;19.53;;;12.83;;
26656;SDS011;14279;50.010;8.260;2024-03-23T02:33:03;20.40;;;12.90;;
26656;SDS011;14279;50.010;8.260;2024-03-23T02:35:29;20.70;;;12.73;;
26656;SDS011;14279;50.010;8.260;2024-03-23T02:37:54;21.90;;;13.60;;
26656;SDS011;14279;50.010;8.260;2024-03-23T02:40:21;25.30;;;14.17;;
26656;SDS011;14279;50.010;8.260;2024-03-23T02:42:47;26.53;;;13.83;;
26656;SDS011;14279;50.010;8.260;2024-03-23T02:45:12;17.97;;;11.97;;
26656;SDS011;14279;50.010;8.260;2024-03-23T02:47:38;18.77;;;12.33;;
26656;SDS011;14279;50.010;8.260;2024-03-23T02:50:03;24.77;;;12.80;;
26656;SDS011;14279;50.010;8.260;2024-03-23T02:52:29;20.33;;;13.03;;
26656;SDS011;14279;50.010;8.260;2024-03-23T02:54:55;21.70;;;13.87;;
26656;SDS011;14279;50.010;8.260;2024-03-23T02:57:20;22.83;;;14.40;;
26656;SDS011;14279;50.010;8.260;2024-03-23T02:59:45;20.53;;;14.07;;
26656;SDS011;14279;50.010;8.260;2024-03-23T03:02:11;20.97;;;14.80;;
26656;SDS011;14279;50.010;8.260;2024-03-23T03:04:38;23.27;;;15.60;;
26656;SDS011;14279;50.010;8.260;2024-03-23T03:07:03;21.63;;;15.20;;
26656;SDS011;14279;50.010;8.260;2024-03-23T03:09:29;24.80;;;15.87;;
26656;SDS011;14279;50.010;8.260;2024-03-23T03:11:54;24.70;;;16.50;;
26656;SDS011;14279;50.010;8.260;2024-03-23T03:14:19;24.13;;;15.70;;
26656;SDS011;14279;50.010;8.260;2024-03-23T03:16:45;25.63;;;15.83;;
26656;SDS011;14279;50.010;8.260;2024-03-23T03:19:10;23.50;;;16.47;;
26656;SDS011;14279;50.010;8.260;2024-03-23T03:21:35;26.33;;;16.67;;
26656;SDS011;14279;50.010;8.260;2024-03-23T03:24:02;26.30;;;15.73;;
26656;SDS011;14279;50.010;8.260;2024-03-23T03:26:27;32.73;;;16.10;;
26656;SDS011;14279;50.010;8.260;2024-03-23T03:28:52;34.87;;;17.57;;
26656;SDS011;14279;50.010;8.260;2024-03-23T03:31:18;27.23;;;18.00;;
26656;SDS011;14279;50.010;8.260;2024-03-23T03:33:43;30.57;;;16.30;;
26656;SDS011;14279;50.010;8.260;2024-03-23T03:36:09;27.20;;;16.73;;
26656;SDS011;14279;50.010;8.260;2024-03-23T03:38:34;43.73;;;18.30;;
26656;SDS011;14279;50.010;8.260;2024-03-23T03:41:03;27.20;;;17.30;;
26656;SDS011;14279;50.010;8.260;2024-03-23T03:43:29;34.80;;;18.73;;
26656;SDS011;14279;50.010;8.260;2024-03-23T03:45:54;29.23;;;18.77;;
26656;SDS011;14279;50.010;8.260;2024-03-23T03:48:21;35.43;;;20.27;;
26656;SDS011;14279;50.010;8.260;2024-03-23T03:50:47;30.30;;;18.90;;
26656;SDS011;14279;50.010;8.260;2024-03-23T03:53:12;27.70;;;17.30;;
26656;SDS011;14279;50.010;8.260;2024-03-23T03:55:37;33.83;;;15.17;;
26656;SDS011;14279;50.010;8.260;2024-03-23T03:58:03;22.57;;;14.50;;
26656;SDS011;14279;50.010;8.260;2024-03-23T04:00:29;22.70;;;13.23;;
26656;SDS011;14279;50.010;8.260;2024-03-23T04:02:55;22.70;;;13.17;;
26656;SDS011;14279;50.010;8.260;2024-03-23T04:05:20;20.60;;;11.63;;
26656;SDS011;14279;50.010;8.260;2024-03-23T04:07:45;8.10;;;4.80;;
26656;SDS011;14279;50.010;8.260;2024-03-23T04:10:11;5.67;;;5.00;;
26656;SDS011;14279;50.010;8.260;2024-03-23T04:12:36;5.30;;;3.53;;
26656;SDS011;14279;50.010;8.260;2024-03-23T04:15:02;4.97;;;4.10;;
26656;SDS011;14279;50.010;8.260;2024-03-23T04:17:29;3.77;;;3.13;;
26656;SDS011;14279;50.010;8.260;2024-03-23T04:19:57;2.77;;;2.47;;
26656;SDS011;14279;50.010;8.260;2024-03-23T04:22:22;2.93;;;2.10;;
26656;SDS011;14279;50.010;8.260;2024-03-23T04:24:49;3.83;;;3.10;;
26656;SDS011;14279;50.010;8.260;2024-03-23T04:27:14;3.10;;;2.80;;
26656;SDS011;14279;50.010;8.260;2024-03-23T04:29:40;3.30;;;2.80;;
26656;SDS011;14279;50.010;8.260;2024-03-23T04:32:05;4.53;;;1.73;;
26656;SDS011;14279;50.010;8.260;2024-03-23T04:34:30;3.20;;;2.40;;
26656;SDS011;14279;50.010;8.260;2024-03-23T04:36:57;6.30;;;2.10;;
26656;SDS011;14279;50.010;8.260;2024-03-23T04:39:23;2.43;;;1.60;;
26656;SDS011;14279;50.010;8.260;2024-03-23T04:41:48;1.37;;;1.30;;
26656;SDS011;14279;50.010;8.260;2024-03-23T04:44:13;1.90;;;1.80;;
26656;SDS011;14279;50.010;8.260;2024-03-23T04:46:39;2.20;;;1.67;;
26656;SDS011;14279;50.010;8.260;2024-03-23T04:49:04;3.83;;;1.97;;
26656;SDS011;14279;50.010;8.260;2024-03-23T04:51:31;2.40;;;2.20;;
26656;SDS011;14279;50.010;8.260;2024-03-23T04:54:00;2.10;;;1.93;;
26656;SDS011;14279;50.010;8.260;2024-03-23T04:56:25;2.40;;;2.20;;
26656;SDS011;14279;50.010;8.260;2024-03-23T04:58:51;2.53;;;2.00;;
26656;SDS011;14279;50.010;8.260;2024-03-23T05:01:16;1.97;;;1.87;;
26656;SDS011;14279;50.010;8.260;2024-03-23T05:03:41;2.40;;;2.20;;
26656;SDS011;14279;50.010;8.260;2024-03-23T05:06:06;2.63;;;2.43;;
26656;SDS011;14279;50.010;8.260;2024-03-23T05:08:32;3.10;;;2.90;;
26656;SDS011;14279;50.010;8.260;2024-03-23T05:10:57;2.93;;;2.73;;
26656;SDS011;14279;50.010;8.260;2024-03-23T05:13:22;4.47;;;3.63;;
26656;SDS011;14279;50.010;8.260;2024-03-23T05:15:52;3.33;;;3.10;;
26656;SDS011;14279;50.010;8.260;2024-03-23T05:18:20;5.70;;;3.90;;
26656;SDS011;14279;50.010;8.260;2024-03-23T05:20:46;4.53;;;4.03;;
26656;SDS011;14279;50.010;8.260;2024-03-23T05:23:11;4.37;;;3.97;;
26656;SDS011;14279;50.010;8.260;2024-03-23T05:25:37;3.70;;;3.40;;
26656;SDS011;14279;50.010;8.260;2024-03-23T05:28:02;5.53;;;3.40;;
26656;SDS011;14279;50.010;8.260;2024-03-23T05:30:28;3.10;;;2.80;;
26656;SDS011;14279;50.010;8.260;2024-03-23T05:32:53;3.47;;;2.60;;
26656;SDS011;14279;50.010;8.260;2024-03-23T05:35:19;2.20;;;2.03;;
26656;SDS011;14279;50.010;8.260;2024-03-23T05:37:44;2.77;;;2.57;;
26656;SDS011;14279;50.010;8.260;2024-03-23T05:40:09;2.73;;;2.53;;
26656;SDS011;14279;50.010;8.260;2024-03-23T05:42:37;2.57;;;2.37;;
26656;SDS011;14279;50.010;8.260;2024-03-23T05:45:03;2.40;;;2.20;;
26656;SDS011;14279;50.010;8.260;2024-03-23T05:47:31;1.97;;;1.87;;
26656;SDS011;14279;50.010;8.260;2024-03-23T05:49:58;2.30;;;2.13;;
26656;SDS011;14279;50.010;8.260;2024-03-23T05:52:24;1.90;;;1.80;;
26656;SDS011;14279;50.010;8.260;2024-03-23T05:54:50;1.83;;;1.73;;
26656;SDS011;14279;50.010;8.260;2024-03-23T05:57:15;1.93;;;1.83;;
26656;SDS011;14279;50.010;8.260;2024-03-23T05:59:41;1.90;;;1.77;;
26656;SDS011;14279;50.010;8.260;2024-03-23T06:02:06;2.53;;;2.33;;
26656;SDS011;14279;50.010;8.260;2024-03-23T06:04:32;1.83;;;1.73;;
26656;SDS011;14279;50.010;8.260;2024-03-23T06:06:57;1.70;;;1.60;;
26656;SDS011;14279;50.010;8.260;2024-03-23T06:09:22;1.20;;;1.20;;
26656;SDS011;14279;50.010;8.260;2024-03-23T06:11:48;1.20;;;1.20;;
26656;SDS011;14279;50.010;8.260;2024-03-23T06:14:13;1.50;;;1.40;;
26656;SDS011;14279;50.010;8.260;2024-03-23T06:16:38;2.07;;;1.70;;
26656;SDS011;14279;50.010;8.260;2024-03-23T06:19:04;1.50;;;1.40;;
26656;SDS011;14279;50.010;8.260;2024-03-23T06:21:31;2.90;;;1.90;;
26656;SDS011;14279;50.010;8.260;2024-03-23T06:23:57;1.60;;;1.50;;
26656;SDS011;14279;50.010;8.260;2024-03-23T06:26:23;1.43;;;1.33;;
26656;SDS011;14279;50.010;8.260;2024-03-23T06:28:48;4.13;;;1.20;;
26656;SDS011;14279;50.010;8.260;2024-03-23T06:31:13;1.60;;;1.50;;
26656;SDS011;14279;50.010;8.260;2024-03-23T06:33:38;1.27;;;1.27;;
26656;SDS011;14279;50.010;8.260;2024-03-23T06:36:05;1.13;;;1.03;;
26656;SDS011;14279;50.010;8.260;2024-03-23T06:38:30;2.13;;;1.13;;
26656;SDS011;14279;50.010;8.260;2024-03-23T06:40:56;1.53;;;1.30;;
26656;SDS011;14279;50.010;8.260;2024-03-23T06:43:21;1.30;;;1.20;;
26656;SDS011;14279;50.010;8.260;2024-03-23T06:45:53;2.00;;;1.60;;
26656;SDS011;14279;50.010;8.260;2024-03-23T06:48:19;2.50;;;1.80;;
26656;SDS011;14279;50.010;8.260;2024-03-23T06:50:45;1.53;;;1.37;;
26656;SDS011;14279;50.010;8.260;2024-03-23T06:53:11;2.13;;;2.03;;
26656;SDS011;14279;50.010;8.260;2024-03-23T06:55:37;2.23;;;1.73;;
26656;SDS011;14279;50.010;8.260;2024-03-23T06:58:02;2.47;;;1.60;;
26656;SDS011;14279;50.010;8.260;2024-03-23T07:00:28;4.50;;;1.63;;
26656;SDS011;14279;50.010;8.260;2024-03-23T07:02:53;2.50;;;1.80;;
26656;SDS011;14279;50.010;8.260;2024-03-23T07:05:18;3.93;;;2.07;;
26656;SDS011;14279;50.010;8.260;2024-03-23T07:07:43;4.57;;;2.00;;
26656;SDS011;14279;50.010;8.260;2024-03-23T07:10:09;5.47;;;1.93;;
26656;SDS011;14279;50.010;8.260;2024-03-23T07:12:34;4.50;;;2.27;;
26656;SDS011;14279;50.010;8.260;2024-03-23T07:14:59;5.53;;;2.00;;
26656;SDS011;14279;50.010;8.260;2024-03-23T07:17:25;3.33;;;1.90;;
26656;SDS011;14279;50.010;8.260;2024-03-23T07:19:50;4.03;;;2.77;;
26656;SDS011;14279;50.010;8.260;2024-03-23T07:22:15;7.00;;;2.80;;
26656;SDS011;14279;50.010;8.260;2024-03-23T07:24:40;5.80;;;3.57;;
26656;SDS011;14279;50.010;8.260;2024-03-23T07:27:06;6.00;;;3.13;;
26656;SDS011;14279;50.010;8.260;2024-03-23T07:29:34;5.73;;;2.60;;
26656;SDS011;14279;50.010;8.260;2024-03-23T07:32:00;5.40;;;2.90;;
26656;SDS011;14279;50.010;8.260;2024-03-23T07:34:25;5.80;;;2.67;;
26656;SDS011;14279;50.010;8.260;2024-03-23T07:36:50;6.17;;;3.17;;
26656;SDS011;14279;50.010;8.260;2024-03-23T07:39:16;8.77;;;3.80;;
26656;SDS011;14279;50.010;8.260;2024-03-23T07:41:44;6.07;;;2.93;;
26656;SDS011;14279;50.010;8.260;2024-03-23T07:44:10;5.00;;;3.27;;
26656;SDS011;14279;50.010;8.260;2024-03-23T07:46:35;7.30;;;3.40;;
26656;SDS011;14279;50.010;8.260;2024-03-23T07:49:00;9.97;;;3.63;;
26656;SDS011;14279;50.010;8.260;2024-03-23T07:51:26;8.67;;;3.13;;
26656;SDS011;14279;50.010;8.260;2024-03-23T07:53:51;5.90;;;3.43;;
26656;SDS011;14279;50.010;8.260;2024-03-23T07:56:17;6.80;;;3.20;;
26656;SDS011;14279;50.010;8.260;2024-03-23T07:58:44;7.93;;;4.20;;
26656;SDS011;14279;50.010;8.260;2024-03-23T08:01:10;7.20;;;3.50;;
26656;SDS011;14279;50.010;8.260;2024-03-23T08:03:38;12.63;;;3.67;;
26656;SDS011;14279;50.010;8.260;2024-03-23T08:06:11;5.47;;;3.60;;
26656;SDS011;14279;50.010;8.260;2024-03-23T08:08:47;11.73;;;3.70;;
26656;SDS011;14279;50.010;8.260;2024-03-23T08:11:14;5.73;;;3.20;;
26656;SDS011;14279;50.010;8.260;2024-03-23T08:13:41;4.80;;;3.73;;
26656;SDS011;14279;50.010;8.260;2024-03-23T08:16:07;7.60;;;3.60;;
26656;SDS011;14279;50.010;8.260;2024-03-23T08:18:37;8.30;;;3.67;;
26656;SDS011;14279;50.010;8.260;2024-03-23T08:21:05;9.07;;;3.97;;
26656;SDS011;14279;50.010;8.260;2024-03-23T08:23:31;12.70;;;4.30;;
26656;SDS011;14279;50.010;8.260;2024-03-23T08:26:02;11.40;;;3.80;;
26656;SDS011;14279;50.010;8.260;2024-03-23T08:28:38;11.97;;;4.13;;
26656;SDS011;14279;50.010;8.260;2024-03-23T08:31:07;12.83;;;4.90;;
26656;SDS011;14279;50.010;8.260;2024-03-23T08:33:34;7.30;;;3.70;;
26656;SDS011;14279;50.010;8.260;2024-03-23T08:36:00;12.83;;;4.17;;
26656;SDS011;14279;50.010;8.260;2024-03-23T08:38:27;12.20;;;4.23;;
26656;SDS011;14279;50.010;8.260;2024-03-23T08:40:57;8.03;;;3.27;;
26656;SDS011;14279;50.010;8.260;2024-03-23T08:43:22;11.50;;;3.90;;
26656;SDS011;14279;50.010;8.260;2024-03-23T08:45:47;9.10;;;3.73;;
26656;SDS011;14279;50.010;8.260;2024-03-23T08:48:12;11.73;;;4.00;;
26656;SDS011;14279;50.010;8.260;2024-03-23T08:50:38;10.50;;;4.40;;
26656;SDS011;14279;50.010;8.260;2024-03-23T08:53:03;14.00;;;4.50;;
26656;SDS011;14279;50.010;8.260;2024-03-23T08:55:29;7.67;;;3.50;;
26656;SDS011;14279;50.010;8.260;2024-03-23T08:57:55;13.17;;;4.00;;
26656;SDS011;14279;50.010;8.260;2024-03-23T09:00:21;11.93;;;4.43;;
26656;SDS011;14279;50.010;8.260;2024-03-23T09:02:49;7.87;;;3.87;;
26656;SDS011;14279;50.010;8.260;2024-03-23T09:05:15;10.67;;;3.50;;
26656;SDS011;14279;50.010;8.260;2024-03-23T09:07:40;10.27;;;3.70;;
26656;SDS011;14279;50.010;8.260;2024-03-23T09:10:06;6.43;;;2.93;;
26656;SDS011;14279;50.010;8.260;2024-03-23T09:12:32;13.43;;;3.53;;
26656;SDS011;14279;50.010;8.260;2024-03-23T09:14:57;9.63;;;3.30;;
26656;SDS011;14279;50.010;8.260;2024-03-23T09:17:22;9.10;;;3.50;;
26656;SDS011;14279;50.010;8.260;2024-03-23T09:19:48;9.60;;;2.80;;
26656;SDS011;14279;50.010;8.260;2024-03-23T09:22:13;13.90;;;3.17;;
26656;SDS011;14279;50.010;8.260;2024-03-23T09:24:38;8.37;;;3.13;;
26656;SDS011;14279;50.010;8.260;2024-03-23T09:27:04;9.70;;;3.30;;
26656;SDS011;14279;50.010;8.260;2024-03-23T09:29:30;13.50;;;3.73;;
26656;SDS011;14279;50.010;8.260;2024-03-23T09:31:55;12.20;;;3.20;;
26656;SDS011;14279;50.010;8.260;2024-03-23T09:34:20;13.87;;;2.73;;
26656;SDS011;14279;50.010;8.260;2024-03-23T09:36:46;8.50;;;2.17;;
26656;SDS011;14279;50.010;8.260;2024-03-23T09:39:12;11.97;;;2.53;;
26656;SDS011;14279;50.010;8.260;2024-03-23T09:41:38;14.37;;;2.60;;
26656;SDS011;14279;50.010;8.260;2024-03-23T09:44:04;11.90;;;3.17;;
26656;SDS011;14279;50.010;8.260;2024-03-23T09:46:30;19.73;;;3.00;;
26656;SDS011;14279;50.010;8.260;2024-03-23T09:48:59;13.70;;;2.80;;
26656;SDS011;14279;50.010;8.260;2024-03-23T09:51:24;8.83;;;2.40;;
26656;SDS011;14279;50.010;8.260;2024-03-23T09:53:50;6.20;;;2.40;;
26656;SDS011;14279;50.010;8.260;2024-03-23T09:56:17;3.77;;;1.70;;
26656;SDS011;14279;50.010;8.260;2024-03-23T09:58:42;6.57;;;1.90;;
26656;SDS011;14279;50.010;8.260;2024-03-23T10:01:07;5.03;;;2.20;;
26656;SDS011;14279;50.010;8.260;2024-03-23T10:03:41;12.50;;;2.60;;
26656;SDS011;14279;50.010;8.260;2024-03-23T10:06:07;10.50;;;3.10;;
26656;SDS011;14279;50.010;8.260;2024-03-23T10:08:33;9.13;;;2.73;;
26656;SDS011;14279;50.010;8.260;2024-03-23T10:10:58;11.37;;;2.47;;
26656;SDS011;14279;50.010;8.260;2024-03-23T10:13:38;7.27;;;2.57;;
26656;SDS011;14279;50.010;8.260;2024-03-23T10:16:07;7.07;;;2.27;;
26656;SDS011;14279;50.010;8.260;2024-03-23T10:18:32;10.47;;;2.73;;
26656;SDS011;14279;50.010;8.260;2024-03-23T10:23:30;4.03;;;2.20;;
26656;SDS011;14279;50.010;8.260;2024-03-23T10:26:11;9.00;;;1.90;;
26656;SDS011;14279;50.010;8.260;2024-03-23T10:28:50;8.33;;;2.43;;
26656;SDS011;14279;50.010;8.260;2024-03-23T10:31:26;11.73;;;3.13;;
26656;SDS011;14279;50.010;8.260;2024-03-23T10:33:52;11.73;;;2.63;;
26656;SDS011;14279;50.010;8.260;2024-03-23T10:36:19;6.00;;;2.60;;
26656;SDS011;14279;50.010;8.260;2024-03-23T10:38:45;10.20;;;2.83;;
26656;SDS011;14279;50.010;8.260;2024-03-23T10:41:11;7.57;;;2.43;;
26656;SDS011;14279;50.010;8.260;2024-03-23T10:43:37;7.00;;;2.73;;
26656;SDS011;14279;50.010;8.260;2024-03-23T10:46:03;9.00;;;2.80;;
26656;SDS011;14279;50.010;8.260;2024-03-23T10:48:29;13.60;;;2.67;;
26656;SDS011;14279;50.010;8.260;2024-03-23T10:50:54;10.00;;;2.70;;
26656;SDS011;14279;50.010;8.260;2024-03-23T10:53:21;11.57;;;2.93;;
26656;SDS011;14279;50.010;8.260;2024-03-23T10:55:50;5.53;;;2.50;;
26656;SDS011;14279;50.010;8.260;2024-03-23T10:58:17;14.27;;;3.27;;
26656;SDS011;14279;50.010;8.260;2024-03-23T11:00:46;13.40;;;4.37;;
26656;SDS011;14279;50.010;8.260;2024-03-23T11:06:10;7.50;;;2.73;;
26656;SDS011;14279;50.010;8.260;2024-03-23T11:08:36;9.13;;;3.07;;
26656;SDS011;14279;50.010;8.260;2024-03-23T11:11:13;9.30;;;2.90;;
26656;SDS011;14279;50.010;8.260;2024-03-23T11:13:50;5.37;;;2.30;;
26656;SDS011;14279;50.010;8.260;2024-03-23T11:16:16;4.00;;;1.90;;
26656;SDS011;14279;50.010;8.260;2024-03-23T11:21:59;6.53;;;2.50;;
26656;SDS011;14279;50.010;8.260;2024-03-23T11:24:25;6.57;;;1.83;;
26656;SDS011;14279;50.010;8.260;2024-03-23T11:26:50;3.07;;;1.83;;
26656;SDS011;14279;50.010;8.260;2024-03-23T11:29:16;5.90;;;1.90;;
26656;SDS011;14279;50.010;8.260;2024-03-23T11:31:49;5.40;;;2.20;;
26656;SDS011;14279;50.010;8.260;2024-03-23T11:34:18;9.33;;;2.93;;
26656;SDS011;14279;50.010;8.260;2024-03-23T11:36:45;7.50;;;2.57;;
26656;SDS011;14279;50.010;8.260;2024-03-23T11:39:11;5.67;;;2.43;;
26656;SDS011;14279;50.010;8.260;2024-03-23T11:41:45;6.80;;;2.50;;
26656;SDS011;14279;50.010;8.260;2024-03-23T11:44:21;6.07;;;3.43;;
26656;SDS011;14279;50.010;8.260;2024-03-23T11:46:48;9.13;;;3.27;;
26656;SDS011;14279;50.010;8.260;2024-03-23T11:49:19;10.03;;;3.37;;
26656;SDS011;14279;50.010;8.260;2024-03-23T11:51:54;14.93;;;3.40;;
26656;SDS011;14279;50.010;8.260;2024-03-23T11:54:21;12.03;;;3.33;;
26656;SDS011;14279;50.010;8.260;2024-03-23T11:56:57;7.20;;;3.20;;
26656;SDS011;14279;50.010;8.260;2024-03-23T12:01:55;10.67;;;3.50;;
26656;SDS011;14279;50.010;8.260;2024-03-23T12:04:25;8.67;;;3.33;;
26656;SDS011;14279;50.010;8.260;2024-03-23T12:07:10;9.67;;;3.40;;
26656;SDS011;14279;50.010;8.260;2024-03-23T12:09:45;4.77;;;3.23;;
26656;SDS011;14279;50.010;8.260;2024-03-23T12:12:16;9.33;;;3.57;;
26656;SDS011;14279;50.010;8.260;2024-03-23T12:14:46;10.77;;;3.07;;
26656;SDS011;14279;50.010;8.260;2024-03-23T12:17:27;6.10;;;2.73;;
26656;SDS011;14279;50.010;8.260;2024-03-23T12:19:52;8.20;;;2.90;;
26656;SDS011;14279;50.010;8.260;2024-03-23T12:22:21;8.60;;;2.73;;
26656;SDS011;14279;50.010;8.260;2024-03-23T12:24:47;8.40;;;2.43;;
26656;SDS011;14279;50.010;8.260;2024-03-23T12:27:12;5.80;;;2.97;;
26656;SDS011;14279;50.010;8.260;2024-03-23T12:29:37;6.63;;;2.07;;
26656;SDS011;14279;50.010;8.260;2024-03-23T12:32:04;8.70;;;2.50;;
26656;SDS011;14279;50.010;8.260;2024-03-23T12:34:30;3.63;;;1.80;;
26656;SDS011;14279;50.010;8.260;2024-03-23T12:36:55;6.40;;;2.30;;
26656;SDS011;14279;50.010;8.260;2024-03-23T12:39:20;5.77;;;2.07;;
26656;SDS011;14279;50.010;8.260;2024-03-23T12:41:46;6.73;;;2.77;;
26656;SDS011;14279;50.010;8.260;2024-03-23T12:44:12;7.10;;;2.00;;
26656;SDS011;14279;50.010;8.260;2024-03-23T12:46:38;4.27;;;1.50;;
26656;SDS011;14279;50.010;8.260;2024-03-23T12:49:04;2.80;;;0.90;;
26656;SDS011;14279;50.010;8.260;2024-03-23T12:51:30;2.50;;;1.10;;
26656;SDS011;14279;50.010;8.260;2024-03-23T12:53:55;2.33;;;1.10;;
26656;SDS011;14279;50.010;8.260;2024-03-23T12:56:20;0.90;;;0.90;;
26656;SDS011;14279;50.010;8.260;2024-03-23T12:58:45;1.03;;;1.00;;
26656;SDS011;14279;50.010;8.260;2024-03-23T13:01:16;2.07;;;1.40;;
26656;SDS011;14279;50.010;8.260;2024-03-23T13:03:41;4.20;;;1.60;;
26656;SDS011;14279;50.010;8.260;2024-03-23T13:06:06;3.23;;;1.30;;
26656;SDS011;14279;50.010;8.260;2024-03-23T13:08:33;2.20;;;1.37;;
26656;SDS011;14279;50.010;8.260;2024-03-23T13:10:59;3.30;;;1.50;;
26656;SDS011;14279;50.010;8.260;2024-03-23T13:13:24;2.60;;;1.20;;
26656;SDS011;14279;50.010;8.260;2024-03-23T13:15:50;4.87;;;1.30;;
26656;SDS011;14279;50.010;8.260;2024-03-23T13:18:15;1.10;;;1.10;;
26656;SDS011;14279;50.010;8.260;2024-03-23T13:20:41;2.43;;;0.90;;
26656;SDS011;14279;50.010;8.260;2024-03-23T13:23:06;1.00;;;1.00;;
26656;SDS011;14279;50.010;8.260;2024-03-23T13:25:31;1.00;;;0.90;;
26656;SDS011;14279;50.010;8.260;2024-03-23T13:27:58;1.80;;;0.90;;
26656;SDS011;14279;50.010;8.260;2024-03-23T13:30:23;3.50;;;1.00;;
26656;SDS011;14279;50.010;8.260;2024-03-23T13:32:48;1.53;;;1.00;;
26656;SDS011;14279;50.010;8.260;2024-03-23T13:35:14;3.47;;;1.10;;
26656;SDS011;14279;50.010;8.260;2024-03-23T13:37:39;1.17;;;1.10;;
26656;SDS011;14279;50.010;8.260;2024-03-23T13:40:05;4.63;;;0.80;;
26656;SDS011;14279;50.010;8.260;2024-03-23T13:42:31;6.73;;;1.00;;
26656;SDS011;14279;50.010;8.260;2024-03-23T13:44:56;2.60;;;1.00;;
26656;SDS011;14279;50.010;8.260;2024-03-23T13:47:21;2.00;;;1.00;;
26656;SDS011;14279;50.010;8.260;2024-03-23T13:49:47;2.70;;;0.90;;
26656;SDS011;14279;50.010;8.260;2024-03-23T13:52:14;1.40;;;0.97;;
26656;SDS011;14279;50.010;8.260;2024-03-23T13:54:39;3.27;;;0.90;;
26656;SDS011;14279;50.010;8.260;2024-03-23T13:57:10;1.60;;;1.10;;
26656;SDS011;14279;50.010;8.260;2024-03-23T13:59:35;2.90;;;1.27;;
26656;SDS011;14279;50.010;8.260;2024-03-23T14:02:00;1.17;;;0.80;;
26656;SDS011;14279;50.010;8.260;2024-03-23T14:04:26;0.70;;;0.70;;
26656;SDS011;14279;50.010;8.260;2024-03-23T14:06:51;1.23;;;0.93;;
26656;SDS011;14279;50.010;8.260;2024-03-23T14:09:16;2.47;;;0.90;;
26656;SDS011;14279;50.010;8.260;2024-03-23T14:11:46;2.10;;;1.00;;
26656;SDS011;14279;50.010;8.260;2024-03-23T14:14:11;3.57;;;1.00;;
26656;SDS011;14279;50.010;8.260;2024-03-23T14:16:37;1.17;;;0.80;;
26656;SDS011;14279;50.010;8.260;2024-03-23T14:19:02;3.47;;;1.23;;
26656;SDS011;14279;50.010;8.260;2024-03-23T14:21:29;2.30;;;1.07;;
26656;SDS011;14279;50.010;8.260;2024-03-23T14:23:55;1.80;;;0.90;;
26656;SDS011;14279;50.010;8.260;2024-03-23T14:26:20;4.57;;;1.23;;
26656;SDS011;14279;50.010;8.260;2024-03-23T14:28:46;6.83;;;1.07;;
26656;SDS011;14279;50.010;8.260;2024-03-23T14:31:11;1.60;;;0.77;;
26656;SDS011;14279;50.010;8.260;2024-03-23T14:33:37;2.67;;;0.90;;
26656;SDS011;14279;50.010;8.260;2024-03-23T14:36:03;2.93;;;1.20;;
26656;SDS011;14279;50.010;8.260;2024-03-23T14:38:28;3.87;;;1.20;;
26656;SDS011;14279;50.010;8.260;2024-03-23T14:40:57;2.03;;;1.20;;
26656;SDS011;14279;50.010;8.260;2024-03-23T14:43:23;5.10;;;1.00;;
26656;SDS011;14279;50.010;8.260;2024-03-23T14:46:05;2.33;;;1.33;;
26656;SDS011;14279;50.010;8.260;2024-03-23T14:48:31;1.70;;;1.00;;
26656;SDS011;14279;50.010;8.260;2024-03-23T14:50:57;4.20;;;1.20;;
26656;SDS011;14279;50.010;8.260;2024-03-23T14:53:23;2.23;;;0.80;;
26656;SDS011;14279;50.010;8.260;2024-03-23T14:55:49;4.37;;;1.40;;
26656;SDS011;14279;50.010;8.260;2024-03-23T14:58:14;2.60;;;1.20;;
26656;SDS011;14279;50.010;8.260;2024-03-23T15:00:39;4.30;;;0.83;;
26656;SDS011;14279;50.010;8.260;2024-03-23T15:03:04;1.67;;;1.03;;
26656;SDS011;14279;50.010;8.260;2024-03-23T15:05:30;4.60;;;1.10;;
26656;SDS011;14279;50.010;8.260;2024-03-23T15:07:55;2.10;;;1.03;;
26656;SDS011;14279;50.010;8.260;2024-03-23T15:10:20;2.90;;;1.47;;
26656;SDS011;14279;50.010;8.260;2024-03-23T15:12:46;2.10;;;0.83;;
26656;SDS011;14279;50.010;8.260;2024-03-23T15:15:11;1.33;;;1.00;;
26656;SDS011;14279;50.010;8.260;2024-03-23T15:17:37;4.23;;;1.30;;
26656;SDS011;14279;50.010;8.260;2024-03-23T15:20:06;2.13;;;1.20;;
26656;SDS011;14279;50.010;8.260;2024-03-23T15:22:31;3.30;;;1.13;;
26656;SDS011;14279;50.010;8.260;2024-03-23T15:24:57;1.73;;;1.00;;
26656;SDS011;14279;50.010;8.260;2024-03-23T15:27:22;1.70;;;1.03;;
26656;SDS011;14279;50.010;8.260;2024-03-23T15:29:47;2.47;;;1.27;;
26656;SDS011;14279;50.010;8.260;2024-03-23T15:32:12;3.70;;;1.57;;
26656;SDS011;14279;50.010;8.260;2024-03-23T15:34:39;2.17;;;1.80;;
26656;SDS011;14279;50.010;8.260;2024-03-23T15:37:04;1.53;;;1.00;;
26656;SDS011;14279;50.010;8.260;2024-03-23T15:39:29;1.33;;;1.17;;